Time;durP1;ratioP1;P1;durP2;ratioP2;P2;SDS_P1;SDS_P2;PMS_P1;PMS_P2;Temp;Humidity;BMP_temperature;BMP_pressure;BME280_temperature;BME280_humidity;BME280_pressure;Samples;Min_cycle;Max_cycle;Signal;HPM_P1;HPM_P2
2022/06/02 00:00:06;;;;;;;4.00;2.53;;;;;;;23.55;41.20;101953.06;5002267;28;20030;-87
2022/06/02 00:02:50;;;;;;;3.97;2.70;;;;;;;23.52;41.19;101952.41;5003368;28;20041;-85
2022/06/02 00:05:26;;;;;;;2.72;2.35;;;;;;;23.33;40.96;101928.91;5000700;28;20025;-87
2022/06/02 00:08:08;;;;;;;3.25;2.55;;;;;;;23.33;41.40;101930.75;4999653;28;20488;-87
2022/06/02 00:10:34;;;;;;;4.30;3.10;;;;;;;23.48;41.12;101955.56;4997515;28;20030;-86
2022/06/02 00:13:16;;;;;;;4.05;2.85;;;;;;;23.45;41.15;101954.09;4990800;28;20654;-87
2022/06/02 00:15:52;;;;;;;2.45;2.15;;;;;;;23.45;41.26;101959.41;5000478;28;20057;-87
2022/06/02 00:18:34;;;;;;;3.65;2.35;;;;;;;23.44;41.34;101963.06;4987231;28;20038;-87
2022/06/02 00:21:15;;;;;;;4.07;2.53;;;;;;;23.44;41.25;101963.06;4999516;28;20813;-87
2022/06/02 00:23:52;;;;;;;3.33;2.40;;;;;;;23.42;41.46;101964.25;5002668;28;20069;-87
2022/06/02 00:26:59;;;;;;;5.25;2.60;;;;;;;23.40;41.23;101956.47;4987674;28;20034;-87
2022/06/02 00:29:40;;;;;;;3.92;2.65;;;;;;;23.39;41.07;101959.31;4942510;28;20072;-87
2022/06/02 00:32:19;;;;;;;4.50;2.83;;;;;;;23.26;41.41;101935.13;4995281;28;20056;-87
2022/06/02 00:34:56;;;;;;;2.88;2.50;;;;;;;23.37;41.43;101958.66;4999834;28;20124;-87
2022/06/02 00:37:28;;;;;;;3.67;2.42;;;;;;;23.36;41.32;101965.78;4999958;28;20057;-87
2022/06/02 00:39:56;;;;;;;3.00;2.45;;;;;;;23.12;41.06;101923.41;5002306;28;20073;-87
2022/06/02 00:42:24;;;;;;;3.58;2.63;;;;;;;23.35;41.33;101958.84;4973457;28;20076;-87
2022/06/02 00:45:06;;;;;;;2.95;2.55;;;;;;;23.33;41.29;101960.81;4998600;28;20053;-87
2022/06/02 00:47:56;;;;;;;3.30;2.50;;;;;;;23.14;41.17;101932.03;4981845;28;20037;-87
2022/06/02 00:50:44;;;;;;;4.55;2.58;;;;;;;23.33;41.15;101957.31;4999776;28;20041;-87
2022/06/02 00:57:30;;;;;;;3.40;2.53;;;;;;;23.31;41.50;101964.66;4997754;28;20148;-86
2022/06/02 01:00:14;;;;;;;4.22;2.40;;;;;;;23.29;41.33;101969.31;4997994;28;20038;-87
2022/06/02 01:02:58;;;;;;;4.03;2.50;;;;;;;23.27;41.42;101973.97;4981219;28;20052;-87
2022/06/02 01:05:41;;;;;;;3.45;2.50;;;;;;;23.15;41.21;101966.38;5000692;28;20123;-87
2022/06/02 01:08:24;;;;;;;3.75;2.90;;;;;;;23.26;41.75;101977.63;4998921;28;20128;-86
2022/06/02 01:11:14;;;;;;;3.95;2.55;;;;;;;23.25;41.27;101982.13;5001198;28;20037;-86
2022/06/02 01:13:58;;;;;;;3.92;2.60;;;;;;;23.26;41.09;101983.78;4986491;28;20387;-86
2022/06/02 01:16:34;;;;;;;4.68;2.67;;;;;;;23.24;41.24;101987.63;4994727;28;20034;-86
2022/06/02 01:18:59;;;;;;;3.00;2.25;;;;;;;23.24;41.21;101991.09;5000642;28;20037;-87
2022/06/02 01:21:57;;;;;;;3.97;2.58;;;;;;;23.21;41.41;101983.50;4998157;28;20030;-87
2022/06/02 01:24:29;;;;;;;3.95;2.85;;;;;;;23.20;41.45;101995.94;4994847;28;20372;-87
2022/06/02 01:27:09;;;;;;;3.28;2.38;;;;;;;23.20;41.15;101989.81;4997266;28;20052;-87
2022/06/02 01:30:13;;;;;;;3.67;2.33;;;;;;;23.13;41.33;101973.72;4997243;28;20040;-86
2022/06/02 01:32:50;;;;;;;4.05;2.63;;;;;;;23.18;41.15;101991.81;4995124;28;20130;-87
2022/06/02 01:35:31;;;;;;;3.70;2.13;;;;;;;23.16;41.22;101994.66;5000503;28;20140;-86
2022/06/02 01:38:08;;;;;;;4.93;2.72;;;;;;;23.07;41.08;101977.06;5000547;28;20065;-85
2022/06/02 01:41:04;;;;;;;3.60;2.65;;;;;;;23.16;41.39;101993.78;5004530;28;20424;-86
2022/06/02 01:43:36;;;;;;;4.22;2.45;;;;;;;23.14;41.45;101987.81;4994291;28;20053;-88
2022/06/02 01:46:11;;;;;;;3.65;2.22;;;;;;;23.13;41.27;101984.34;5001515;28;20033;-89
2022/06/02 01:48:56;;;;;;;2.55;2.20;;;;;;;23.12;41.53;101990.66;4999741;28;20554;-88
2022/06/02 01:51:30;;;;;;;5.05;2.28;;;;;;;23.08;41.55;101980.56;5000012;28;20026;-88
2022/06/02 01:53:58;;;;;;;3.42;2.28;;;;;;;23.09;41.20;101990.19;4998053;28;20042;-88
2022/06/02 01:56:49;;;;;;;2.50;2.08;;;;;;;23.09;41.36;101988.34;4996691;28;20040;-88
2022/06/02 01:59:36;;;;;;;3.15;2.40;;;;;;;23.10;41.35;101997.97;4981026;28;20378;-88
2022/06/02 02:02:26;;;;;;;2.90;2.50;;;;;;;23.08;41.54;101997.31;5005650;28;20037;-90
2022/06/02 02:05:16;;;;;;;3.13;2.20;;;;;;;23.08;41.23;101993.84;5004948;28;20053;-90
2022/06/02 02:07:51;;;;;;;3.63;2.50;;;;;;;23.07;41.43;101995.66;4997387;28;20045;-90
2022/06/02 02:10:36;;;;;;;4.38;2.63;;;;;;;23.06;41.50;101995.84;5002574;28;20058;-90
2022/06/02 02:13:23;;;;;;;4.25;2.72;;;;;;;23.05;41.25;101999.50;4990696;28;20072;-90
2022/06/02 02:16:10;;;;;;;3.10;2.67;;;;;;;23.06;41.44;102001.16;5004058;28;20033;-90
2022/06/02 02:18:53;;;;;;;3.50;2.50;;;;;;;23.06;41.58;102003.81;5003931;28;21719;-90
2022/06/02 02:21:24;;;;;;;4.07;2.25;;;;;;;23.03;41.35;102001.50;5007988;28;20504;-89
2022/06/02 02:24:27;;;;;;;3.45;2.30;;;;;;;23.03;41.54;102006.81;4988161;28;20428;-89
2022/06/02 02:27:02;;;;;;;3.58;2.40;;;;;;;22.92;41.25;101990.25;5007283;28;20547;-89
2022/06/02 02:29:47;;;;;;;4.25;2.50;;;;;;;23.00;41.27;102007.16;4989123;28;20756;-91
2022/06/02 02:32:40;;;;;;;4.40;2.20;;;;;;;23.01;41.48;102008.81;5004558;28;20022;-91
2022/06/02 02:35:28;;;;;;;3.65;2.80;;;;;;;22.97;41.55;101997.69;5006742;28;20049;-89
2022/06/02 02:38:03;;;;;;;3.17;2.30;;;;;;;22.89;41.21;101985.28;5003139;28;20084;-89
2022/06/02 02:40:51;;;;;;;2.97;2.38;;;;;;;22.99;41.50;102003.69;5002063;28;20096;-89
2022/06/02 02:43:38;;;;;;;2.67;2.20;;;;;;;22.98;41.40;102002.03;4992635;28;20959;-88
2022/06/02 02:46:10;;;;;;;2.55;2.28;;;;;;;22.89;41.29;101998.56;5002478;28;20037;-88
2022/06/02 02:49:00;;;;;;;2.85;2.30;;;;;;;22.96;41.32;102008.50;5000129;28;20095;-88
2022/06/02 02:51:47;;;;;;;3.10;2.40;;;;;;;22.95;41.27;102005.00;5001289;28;21098;-87
2022/06/02 02:54:28;;;;;;;3.00;2.20;;;;;;;22.95;41.29;101999.69;5001283;28;20100;-87
2022/06/02 02:57:15;;;;;;;2.35;2.15;;;;;;;22.94;41.19;102003.34;5001445;28;20038;-88
2022/06/02 02:59:58;;;;;;;2.75;2.20;;;;;;;22.73;41.11;101966.72;4987462;28;20069;-88
2022/06/02 03:02:44;;;;;;;3.53;2.63;;;;;;;22.85;41.36;101991.13;4999825;28;20220;-87
2022/06/02 03:05:33;;;;;;;2.88;2.38;;;;;;;22.92;41.45;101997.38;5000740;28;20034;-88
2022/06/02 03:08:24;;;;;;;4.30;2.60;;;;;;;22.91;41.59;102001.06;5000188;28;20718;-87
2022/06/02 03:10:58;;;;;;;3.00;2.50;;;;;;;22.86;41.50;101995.44;4963233;28;20046;-88
2022/06/02 03:13:34;;;;;;;3.28;2.40;;;;;;;22.90;41.29;101997.56;4993948;28;20050;-87
2022/06/02 03:16:07;;;;;;;3.50;2.50;;;;;;;22.85;41.23;101999.91;5003966;28;20147;-88
2022/06/02 03:19:07;;;;;;;2.40;2.20;;;;;;;22.87;41.44;102000.56;5006225;28;20042;-88
2022/06/02 03:21:37;;;;;;;3.38;2.60;;;;;;;22.80;41.34;101988.97;5007571;28;20465;-88
2022/06/02 03:24:21;;;;;;;;;;;;;;;22.88;41.39;102004.88;5006913;28;20052;-85
2022/06/02 03:27:05;;;;;;;3.58;2.55;;;;;;;22.85;41.61;101997.25;5010616;28;19914;-90
2022/06/02 03:29:45;;;;;;;3.58;2.50;;;;;;;22.86;41.34;101998.09;4982612;28;20066;-90
2022/06/02 03:32:21;;;;;;;2.90;2.33;;;;;;;22.85;41.48;102004.41;5009178;28;20040;-90
2022/06/02 03:35:02;;;;;;;4.10;2.63;;;;;;;22.86;41.16;102000.75;5009698;28;20034;-90
2022/06/02 03:37:48;;;;;;;2.92;2.33;;;;;;;22.83;41.46;102001.91;5007012;28;20504;-90
2022/06/02 03:40:24;;;;;;;2.60;2.10;;;;;;;22.82;41.28;102008.22;5006783;28;20108;-92
2022/06/02 03:43:11;;;;;;;2.50;2.30;;;;;;;22.84;41.56;102016.03;5007852;28;20368;-92
2022/06/02 03:45:59;;;;;;;2.58;2.17;;;;;;;22.83;41.54;102011.72;5000612;28;20566;-92
2022/06/02 03:48:36;;;;;;;2.53;2.08;;;;;;;;;;5005052;28;20140;-92
2022/06/02 03:51:20;;;;;;;2.22;2.00;;;;;;;22.81;41.26;102014.50;5007461;28;20036;-91
2022/06/02 03:54:21;;;;;;;3.33;2.40;;;;;;;22.83;41.36;102017.03;5006888;28;20583;-92
2022/06/02 03:56:49;;;;;;;4.55;2.22;;;;;;;22.79;41.17;102027.09;5005046;28;20053;-91
2022/06/02 03:59:37;;;;;;;2.60;2.15;;;;;;;22.79;41.30;102020.97;4999592;28;20069;-91
2022/06/02 04:02:08;;;;;;;2.97;2.38;;;;;;;22.78;41.40;102025.44;5008280;28;20038;-91
2022/06/02 04:05:02;;;;;;;3.58;2.40;;;;;;;22.79;41.37;102031.59;5004509;28;20041;-92
2022/06/02 04:07:46;;;;;;;2.63;2.30;;;;;;;22.78;41.43;102024.63;5007309;28;20041;-91
2022/06/02 04:10:47;;;;;;;2.28;2.03;;;;;;;22.78;41.18;102028.09;5008195;28;20026;-91
2022/06/02 04:13:38;;;;;;;3.38;2.30;;;;;;;22.78;41.44;102040.56;5002039;28;20843;-91
2022/06/02 04:16:15;;;;;;;2.35;2.05;;;;;;;22.79;41.45;102036.91;4999224;28;20057;-91
2022/06/02 04:22:32;;;;;;;2.25;2.05;;;;;;;22.75;41.24;102031.09;5005333;28;20045;-91
2022/06/02 04:25:29;;;;;;;3.53;2.80;;;;;;;22.77;41.46;102044.22;5004585;28;20037;-92
2022/06/02 04:28:09;;;;;;;3.97;2.40;;;;;;;22.75;41.09;102052.34;5003545;28;20045;-91
2022/06/02 04:31:03;;;;;;;2.13;1.92;;;;;;;22.66;41.21;102037.44;4997668;28;20041;-91
2022/06/02 04:33:40;;;;;;;3.38;2.35;;;;;;;22.72;41.17;102049.22;5006191;28;20520;-91
2022/06/02 04:36:31;;;;;;;4.55;2.30;;;;;;;22.66;41.47;102033.97;5004158;28;20060;-91
2022/06/02 04:39:20;;;;;;;2.63;2.35;;;;;;;22.73;41.20;102049.03;5003262;28;20796;-90
2022/06/02 04:42:09;;;;;;;3.55;2.25;;;;;;;22.74;41.21;102055.19;4988651;28;20134;-91
2022/06/02 04:45:00;;;;;;;2.88;2.17;;;;;;;22.74;41.25;102052.53;4980770;28;20401;-89
2022/06/02 04:48:03;;;;;;;2.70;2.45;;;;;;;22.73;41.21;102054.34;5003664;28;20096;-90
2022/06/02 04:50:54;;;;;;;2.67;2.10;;;;;;;22.67;41.28;102055.03;5005008;28;20038;-90
2022/06/02 04:53:55;;;;;;;3.20;2.30;;;;;;;22.73;41.39;102067.63;5002146;28;20472;-91
2022/06/02 04:56:30;;;;;;;2.40;2.20;;;;;;;22.73;41.19;102069.47;5004459;28;20364;-91
2022/06/02 04:59:18;;;;;;;2.47;2.15;;;;;;;22.73;41.11;102070.28;5005723;28;20042;-91
2022/06/02 05:01:50;;;;;;;2.25;2.05;;;;;;;22.56;41.03;102048.25;4994490;28;20030;-91
2022/06/02 05:04:42;;;;;;;2.22;2.03;;;;;;;22.72;41.29;102079.25;5006560;28;20650;-91
2022/06/02 05:07:18;;;;;;;2.50;2.30;;;;;;;22.64;41.30;102065.16;5003416;28;20096;-91
2022/06/02 05:10:07;;;;;;;2.60;2.40;;;;;;;22.74;41.35;102077.25;5005756;28;20137;-91
2022/06/02 05:12:35;;;;;;;2.45;2.20;;;;;;;22.73;41.32;102080.06;5006213;28;20034;-92
2022/06/02 05:15:19;;;;;;;2.30;2.10;;;;;;;22.71;41.33;102079.41;4993806;28;20030;-92
2022/06/02 05:18:10;;;;;;;2.45;2.00;;;;;;;22.72;41.46;102084.56;4987468;28;20038;-92
2022/06/02 05:20:58;;;;;;;3.53;2.30;;;;;;;22.60;41.42;102070.78;5002569;28;20714;-92
2022/06/02 05:23:39;;;;;;;2.78;2.28;;;;;;;22.73;41.19;102085.38;5005874;28;20029;-92
2022/06/02 05:26:29;;;;;;;2.88;2.28;;;;;;;22.71;41.34;102084.72;5005797;28;20129;-92
2022/06/02 05:29:32;;;;;;;2.35;2.13;;;;;;;22.72;41.33;102086.38;4998590;28;20128;-89
2022/06/02 05:32:37;;;;;;;2.38;2.10;;;;;;;22.65;41.09;102091.56;4992954;28;20038;-90
2022/06/02 05:35:47;;;;;;;3.80;2.20;;;;;;;22.70;41.17;102099.84;4988304;28;20065;-89
2022/06/02 05:38:36;;;;;;;2.30;2.08;;;;;;;22.72;41.49;102092.53;4965839;28;20060;-89
2022/06/02 05:41:19;;;;;;;2.83;2.40;;;;;;;22.70;41.08;102102.50;5001077;28;20039;-91
2022/06/02 05:44:22;;;;;;;2.20;1.95;;;;;;;22.68;41.24;102093.03;5008950;28;20492;-90
2022/06/02 05:47:04;;;;;;;2.95;2.33;;;;;;;22.72;41.38;102112.94;4963128;28;20123;-90
2022/06/02 05:49:51;;;;;;;2.50;2.10;;;;;;;22.71;41.43;102112.13;5004736;28;20143;-90
2022/06/02 05:53:13;;;;;;;2.35;2.15;;;;;;;22.72;41.17;102112.94;5007005;28;20033;-92
2022/06/02 05:56:06;;;;;;;2.67;2.20;;;;;;;22.73;41.38;102114.59;4944631;28;20047;-91
2022/06/02 05:59:19;;;;;;;2.42;2.20;;;;;;;22.67;41.09;102118.75;5008767;28;20030;-91
2022/06/02 06:02:20;;;;;;;3.50;2.13;;;;;;;22.74;41.10;102118.91;4994655;28;20407;-92
2022/06/02 06:05:06;;;;;;;2.50;2.05;;;;;;;22.73;41.13;102117.25;5007164;28;20053;-91
2022/06/02 06:07:32;;;;;;;3.10;2.28;;;;;;;22.73;41.12;102120.72;5007611;28;20033;-91
2022/06/02 06:10:17;;;;;;;2.30;2.10;;;;;;;22.76;41.01;102124.88;5012393;28;20116;-91
2022/06/02 06:12:55;;;;;;;2.80;2.35;;;;;;;22.62;41.19;102115.75;5007813;28;20060;-91
2022/06/02 06:15:39;;;;;;;2.50;2.15;;;;;;;22.73;41.38;102135.84;4994034;28;20053;-92
2022/06/02 06:18:16;;;;;;;2.25;2.05;;;;;;;22.73;41.14;102133.19;5007126;28;20712;-91
2022/06/02 06:21:01;;;;;;;3.00;2.20;;;;;;;22.74;41.12;102134.84;5007375;28;20034;-91
2022/06/02 06:23:36;;;;;;;2.22;2.03;;;;;;;22.74;41.20;102134.84;5010176;28;20037;-91
2022/06/02 06:26:59;;;;;;;2.42;2.20;;;;;;;22.68;41.23;102135.53;5008836;28;20042;-91
2022/06/02 06:29:40;;;;;;;2.38;2.05;;;;;;;22.75;41.18;102145.28;4968799;28;20069;-91
2022/06/02 06:32:30;;;;;;;2.30;2.10;;;;;;;22.74;41.28;102148.94;4949087;28;20043;-95
2022/06/02 06:35:13;;;;;;;2.15;1.95;;;;;;;22.75;41.45;102147.94;5002247;28;20428;-93
2022/06/02 06:37:39;;;;;;;2.30;2.08;;;;;;;22.75;41.55;102149.78;4987192;28;20118;-93
2022/06/02 06:40:19;;;;;;;2.10;1.90;;;;;;;22.76;41.29;102149.59;4983301;28;20738;-90
2022/06/02 06:43:03;;;;;;;2.70;2.45;;;;;;;22.76;41.55;102146.13;4969031;28;20129;-91
2022/06/02 06:45:56;;;;;;;2.67;2.25;;;;;;;22.81;41.43;102157.91;4943344;28;20058;-83
2022/06/02 06:48:32;;;;;;;6.78;2.38;;;;;;;22.69;41.27;102139.84;4964773;28;20069;-83
2022/06/02 06:51:04;;;;;;;4.75;2.33;;;;;;;22.63;41.03;102122.75;4979184;28;20027;-82
2022/06/02 06:53:54;;;;;;;2.70;2.22;;;;;;;22.66;41.14;102134.88;4967407;28;20035;-82
2022/06/02 06:56:31;;;;;;;4.40;2.40;;;;;;;22.79;40.81;102159.06;4979058;28;20042;-83
2022/06/02 06:59:10;;;;;;;4.57;2.40;;;;;;;22.72;40.71;102147.47;4963886;28;20358;-83
2022/06/02 07:01:51;;;;;;;2.40;2.20;;;;;;;22.80;40.91;102161.56;4950995;28;20054;-83
2022/06/02 07:04:30;;;;;;;4.05;2.10;;;;;;;22.73;40.55;102149.13;4964259;28;20229;-82
2022/06/02 07:07:49;;;;;;;2.95;2.22;;;;;;;22.82;40.62;102164.94;4963353;28;20750;-84
2022/06/02 07:10:35;;;;;;;3.63;2.50;;;;;;;22.81;40.90;102163.22;4919508;29;20133;-81
2022/06/02 07:13:09;;;;;;;3.47;2.58;;;;;;;;;;4965973;28;20049;-82
2022/06/02 07:15:40;;;;;;;3.22;2.30;;;;;;;22.79;40.64;102161.72;4937976;28;20069;-83
2022/06/02 07:18:24;;;;;;;18.65;2.95;;;;;;;22.80;40.45;102177.50;4969581;28;20070;-83
2022/06/02 07:21:18;;;;;;;2.70;2.25;;;;;;;22.75;40.83;102173.69;4967640;28;20046;-82
2022/06/02 07:23:55;;;;;;;4.78;2.20;;;;;;;22.64;40.33;102158.94;4962771;28;20038;-82
2022/06/02 07:26:39;;;;;;;6.35;2.53;;;;;;;22.81;40.60;102179.16;4974752;28;20035;-83
2022/06/02 07:29:23;;;;;;;3.78;2.40;;;;;;;;;;4966927;28;20122;-83
2022/06/02 07:32:24;;;;;;;4.18;2.30;;;;;;;22.58;40.63;102140.97;4949256;28;20045;-81
2022/06/02 07:35:02;;;;;;;2.90;2.15;;;;;;;22.84;40.41;102183.34;4941404;28;20049;-81
2022/06/02 07:37:31;;;;;;;3.40;2.67;;;;;;;22.72;40.53;102169.53;4957233;28;20042;-81
2022/06/02 07:40:37;;;;;;;3.15;2.20;;;;;;;22.82;40.40;102191.47;4959513;28;20038;-82
2022/06/02 07:43:21;;;;;;;3.13;2.38;;;;;;;22.84;40.62;102180.69;4962809;28;20046;-82
2022/06/02 07:46:19;;;;;;;4.38;2.47;;;;;;;22.83;40.68;102184.34;4947440;28;20492;-81
2022/06/02 07:48:55;;;;;;;4.70;2.05;;;;;;;22.81;40.38;102189.78;4941188;28;20073;-81
2022/06/02 07:51:45;;;;;;;4.30;2.17;;;;;;;22.70;40.22;102162.72;4960591;28;20232;-80
2022/06/02 07:54:21;;;;;;;5.85;2.40;;;;;;;22.77;40.17;102184.97;4960102;28;20062;-80
2022/06/02 07:56:56;;;;;;;3.15;2.28;;;;;;;22.81;40.41;102197.75;4961781;28;20037;-80
2022/06/02 07:59:30;;;;;;;4.07;2.20;;;;;;;;;;4977306;28;20119;-80
2022/06/02 08:02:18;;;;;;;3.55;2.10;;;;;;;22.84;40.07;102193.97;4948244;28;20042;-80
2022/06/02 08:05:12;;;;;;;4.63;2.90;;;;;;;22.74;39.98;102196.75;4963307;28;20038;-81
2022/06/02 08:07:49;;;;;;;7.32;2.40;;;;;;;22.79;39.91;102206.88;4962431;28;20066;-81
2022/06/02 08:10:34;;;;;;;3.05;2.38;;;;;;;22.78;39.69;102208.69;4980289;28;20082;-82
2022/06/02 08:13:20;;;;;;;3.50;2.10;;;;;;;22.84;39.67;102212.56;4963491;28;20039;-81
2022/06/02 08:16:06;;;;;;;3.03;2.30;;;;;;;22.75;39.82;102193.09;4975870;28;20101;-82
2022/06/02 08:18:48;;;;;;;5.32;2.30;;;;;;;22.83;39.42;102211.72;4954698;28;20097;-82
2022/06/02 08:21:38;;;;;;;3.35;2.28;;;;;;;22.79;39.85;102220.13;4961210;28;20041;-81
2022/06/02 08:24:29;;;;;;;3.60;2.40;;;;;;;22.84;39.35;102228.50;4965895;28;20050;-81
2022/06/02 08:27:26;;;;;;;5.30;2.45;;;;;;;22.80;39.44;102230.63;4964697;28;20023;-81
2022/06/02 08:30:13;;;;;;;4.53;2.03;;;;;;;22.76;39.85;102225.78;4980802;28;20088;-81
2022/06/02 08:32:51;;;;;;;2.90;2.30;;;;;;;22.75;39.61;102227.63;4961028;28;20031;-81
2022/06/02 08:35:41;;;;;;;4.38;2.40;;;;;;;22.61;39.72;102218.47;4965818;28;20121;-81
2022/06/02 08:38:28;;;;;;;4.75;2.38;;;;;;;22.73;39.33;102234.09;5004048;28;20108;-81
2022/06/02 08:41:33;;;;;;;3.67;2.30;;;;;;;22.73;39.03;102240.22;5002125;28;20041;-81
2022/06/02 08:44:17;;;;;;;5.47;2.33;;;;;;;22.74;39.27;102239.22;5007441;28;20279;-81
2022/06/02 08:47:04;;;;;;;4.63;2.30;;;;;;;22.79;39.47;102244.03;4974908;28;21672;-82
2022/06/02 08:50:09;;;;;;;3.85;2.55;;;;;;;22.44;39.75;102195.59;5004570;28;20025;-81
2022/06/02 08:53:09;;;;;;;7.85;2.63;;;;;;;22.69;39.57;102235.41;5000232;28;20109;-81
2022/06/02 08:55:41;;;;;;;5.00;2.58;;;;;;;22.80;39.76;102251.00;5008446;28;20080;-81
2022/06/02 08:58:44;;;;;;;4.55;2.35;;;;;;;22.78;39.52;102256.50;5005108;28;20705;-81
2022/06/02 09:01:40;;;;;;;4.30;2.17;;;;;;;22.77;39.41;102249.53;5004975;28;20073;-80
2022/06/02 09:04:30;;;;;;;5.63;2.72;;;;;;;22.79;39.45;102252.84;4995932;28;20037;-82
2022/06/02 09:07:09;;;;;;;5.43;2.10;;;;;;;22.76;39.57;102257.66;5002959;28;20458;-81
2022/06/02 09:09:49;;;;;;;4.82;2.60;;;;;;;22.75;39.60;102254.16;5000434;28;20053;-81
2022/06/02 09:12:38;;;;;;;3.33;2.13;;;;;;;22.78;39.38;102264.47;5006684;28;20274;-81
2022/06/02 09:15:06;;;;;;;2.88;2.30;;;;;;;22.81;39.28;102264.16;5008367;28;20549;-81
2022/06/02 09:18:15;;;;;;;4.80;2.78;;;;;;;22.77;39.59;102257.50;4985577;28;20490;-81
2022/06/02 09:20:50;;;;;;;4.05;2.50;;;;;;;22.76;39.62;102262.97;5003974;28;20137;-81
2022/06/02 09:23:15;;;;;;;4.85;2.42;;;;;;;22.80;39.22;102264.28;5000591;28;20052;-80
2022/06/02 09:26:28;;;;;;;3.67;2.30;;;;;;;22.78;39.41;102261.81;5003133;28;20121;-80
2022/06/02 09:29:26;;;;;;;2.55;2.22;;;;;;;22.79;39.45;102268.78;5007478;28;20029;-81
2022/06/02 09:32:05;;;;;;;3.85;2.60;;;;;;;22.75;39.35;102278.06;4988304;28;20076;-81
2022/06/02 09:34:59;;;;;;;5.18;2.72;;;;;;;22.78;39.26;102279.56;5000447;28;20034;-81
2022/06/02 09:37:46;;;;;;;3.67;2.40;;;;;;;22.79;39.66;102281.22;4996875;28;20423;-80
2022/06/02 09:40:47;;;;;;;4.03;2.42;;;;;;;22.77;39.96;102276.06;5001906;28;20037;-79
2022/06/02 09:43:49;;;;;;;3.78;2.40;;;;;;;22.78;41.35;102280.41;4994856;28;20041;-80
2022/06/02 09:46:39;;;;;;;7.03;2.42;;;;;;;22.75;41.52;102280.72;4987451;28;20036;-85
2022/06/02 09:49:26;;;;;;;3.13;2.50;;;;;;;22.75;41.04;102274.59;4976002;28;20041;-82
2022/06/02 09:52:02;;;;;;;7.57;2.35;;;;;;;22.56;40.68;102260.63;5000990;28;20033;-82
2022/06/02 09:54:53;;;;;;;4.28;2.55;;;;;;;22.67;40.32;102267.44;5001706;28;20045;-82
2022/06/02 10:00:18;;;;;;;3.75;2.65;;;;;;;22.76;40.48;102290.34;4999414;28;20056;-83
2022/06/02 10:02:58;;;;;;;4.65;2.30;;;;;;;22.76;40.16;102287.69;4999873;28;20662;-82
2022/06/02 10:05:30;;;;;;;5.05;2.60;;;;;;;22.76;39.93;102285.03;4983826;28;20080;-83
2022/06/02 10:08:30;;;;;;;5.13;2.65;;;;;;;22.69;39.92;102283.22;5001438;28;20060;-83
2022/06/02 10:11:08;;;;;;;;;;;;;;;22.74;40.06;102296.81;4997039;28;20427;-82
2022/06/02 10:14:00;;;;;;;4.07;2.42;;;;;;;22.72;39.93;102285.53;5001792;28;19925;-82
2022/06/02 10:17:04;;;;;;;5.50;2.53;;;;;;;22.72;39.75;102290.84;5002451;28;20038;-83
2022/06/02 10:19:51;;;;;;;3.42;2.50;;;;;;;22.74;39.80;102296.81;4991020;28;20100;-82
2022/06/02 10:22:49;;;;;;;4.20;2.47;;;;;;;22.59;40.01;102272.72;5001280;28;20042;-83
2022/06/02 10:25:47;;;;;;;4.00;2.65;;;;;;;22.64;40.05;102283.72;4991264;28;20483;-83
2022/06/02 10:28:40;;;;;;;4.75;2.28;;;;;;;22.73;39.91;102287.19;5007749;28;20042;-81
2022/06/02 10:31:24;;;;;;;3.42;2.25;;;;;;;22.72;39.66;102294.34;5003692;28;20061;-81
2022/06/02 10:33:58;;;;;;;2.90;2.53;;;;;;;22.73;39.67;102303.13;4984462;28;20033;-82
2022/06/02 10:36:29;;;;;;;3.70;2.45;;;;;;;22.72;39.75;102306.78;5002106;28;20592;-81
2022/06/02 10:39:10;;;;;;;3.63;2.40;;;;;;;22.68;39.59;102287.69;5002425;28;20045;-82
2022/06/02 10:41:45;;;;;;;3.67;2.35;;;;;;;22.69;39.67;102297.31;5003756;28;20057;-82
2022/06/02 10:44:19;;;;;;;4.53;2.30;;;;;;;22.52;39.75;102263.78;5002101;28;20034;-81
2022/06/02 10:47:10;;;;;;;8.00;2.95;;;;;;;22.72;39.54;102291.69;5001597;28;20041;-81
2022/06/02 10:49:55;;;;;;;4.10;2.45;;;;;;;22.70;39.93;102287.53;4986649;28;20775;-82
2022/06/02 10:53:08;;;;;;;4.55;2.50;;;;;;;22.71;39.76;102297.16;4994065;28;20050;-81
2022/06/02 10:55:55;;;;;;;4.13;2.80;;;;;;;22.68;39.82;102298.31;4948729;28;20051;-82
2022/06/02 10:58:47;;;;;;;3.10;2.40;;;;;;;22.71;39.73;102297.16;5000729;28;20639;-81
2022/06/02 11:01:57;;;;;;;5.65;2.60;;;;;;;22.69;39.52;102294.66;5000399;28;20501;-81
2022/06/02 11:05:00;;;;;;;4.55;2.45;;;;;;;22.69;39.73;102288.53;4986564;28;20795;-81
2022/06/02 11:07:44;;;;;;;5.57;2.78;;;;;;;22.67;39.67;102294.00;4995686;28;20083;-82
2022/06/02 11:10:22;;;;;;;4.60;2.20;;;;;;;22.68;39.96;102289.53;5001811;28;20128;-82
2022/06/02 11:13:17;;;;;;;3.65;2.55;;;;;;;22.69;39.44;102292.00;4997809;28;20066;-81
2022/06/02 11:15:55;;;;;;;4.40;2.33;;;;;;;22.67;39.71;102293.19;5001931;28;20040;-84
2022/06/02 11:18:26;;;;;;;2.97;2.25;;;;;;;22.67;39.88;102283.38;4992287;28;20780;-85
2022/06/02 11:21:06;;;;;;;4.72;3.38;;;;;;;22.60;39.80;102269.91;5014505;28;20496;-84
2022/06/02 11:24:15;;;;;;;3.97;3.05;;;;;;;22.70;39.74;102282.22;4986212;28;20148;-84
2022/06/02 11:27:02;;;;;;;3.10;2.60;;;;;;;22.70;39.82;102283.06;4977446;28;20046;-84
2022/06/02 11:30:05;;;;;;;3.25;2.42;;;;;;;22.72;40.07;102283.72;5008533;28;20033;-86
2022/06/02 11:32:50;;;;;;;3.35;2.60;;;;;;;22.72;39.74;102282.88;5004871;28;20069;-85
2022/06/02 11:35:43;;;;;;;4.53;2.67;;;;;;;22.68;39.83;102271.75;4999188;28;20073;-84
2022/06/02 11:38:08;;;;;;;4.50;2.70;;;;;;;22.71;40.15;102262.63;4987088;28;20096;-84
2022/06/02 11:41:01;;;;;;;5.90;2.60;;;;;;;22.70;39.89;102268.94;5005676;28;20050;-83
2022/06/02 11:43:58;;;;;;;5.10;2.33;;;;;;;22.63;39.89;102252.03;5012104;28;20092;-84
2022/06/02 11:46:45;;;;;;;4.47;2.45;;;;;;;22.53;40.10;102242.38;4998968;28;20056;-83
2022/06/02 11:49:20;;;;;;;3.22;2.33;;;;;;;22.76;40.17;102268.28;5001326;28;20045;-83
2022/06/02 11:52:07;;;;;;;3.50;2.35;;;;;;;22.77;40.21;102272.59;5004541;28;20034;-85
2022/06/02 11:55:00;;;;;;;2.92;2.38;;;;;;;22.74;40.23;102272.94;5008601;28;20038;-83
2022/06/02 11:57:48;;;;;;;3.40;2.53;;;;;;;22.75;40.05;102264.78;4991604;28;21218;-84
2022/06/02 12:00:48;;;;;;;3.30;2.40;;;;;;;22.77;40.19;102265.47;5007146;28;20779;-84
2022/06/02 12:03:32;;;;;;;3.47;2.70;;;;;;;22.78;40.00;102263.63;5007727;28;20747;-83
2022/06/02 12:06:24;;;;;;;3.78;2.60;;;;;;;22.78;40.06;102271.59;4997080;28;20034;-83
2022/06/02 12:09:12;;;;;;;3.47;2.30;;;;;;;22.77;40.04;102265.47;4980999;28;20044;-84
2022/06/02 12:11:56;;;;;;;4.72;2.55;;;;;;;22.78;40.57;102258.31;5005115;28;20489;-92
2022/06/02 12:14:56;;;;;;;3.50;2.58;;;;;;;22.89;40.09;102269.50;5001520;28;20092;-88
2022/06/02 12:17:49;;;;;;;9.30;2.42;;;;;;;23.00;40.28;102264.84;4936649;28;20050;-86
2022/06/02 12:20:32;;;;;;;4.63;2.33;;;;;;;23.11;40.06;102262.69;4999656;28;20030;-89
2022/06/02 12:23:08;;;;;;;4.80;2.28;;;;;;;23.23;40.38;102262.34;5008913;28;20038;-82
2022/06/02 12:25:48;;;;;;;4.18;2.58;;;;;;;23.28;40.35;102263.50;5002850;28;20041;-85
2022/06/02 12:28:51;;;;;;;;;;;;;;;23.31;40.10;102259.66;4953161;28;20045;-86
2022/06/02 12:31:39;;;;;;;5.47;2.45;;;;;;;23.24;40.24;102243.56;4922116;28;19918;-88
2022/06/02 12:34:26;;;;;;;4.63;2.35;;;;;;;23.43;39.99;102258.31;4903141;28;20146;-81
2022/06/02 12:37:21;;;;;;;3.20;2.30;;;;;;;23.48;40.12;102261.31;4986569;28;20053;-83
2022/06/02 12:40:15;;;;;;;3.55;2.47;;;;;;;23.48;40.26;102256.81;4980696;28;20038;-87
2022/06/02 12:42:41;;;;;;;3.15;2.58;;;;;;;23.50;40.36;102260.13;5007633;28;20038;-88
2022/06/02 12:45:37;;;;;;;5.72;2.38;;;;;;;23.51;40.27;102255.63;4964671;28;20397;-88
2022/06/02 12:48:21;;;;;;;9.77;2.67;;;;;;;23.48;40.22;102259.47;5007718;28;20051;-89
2022/06/02 12:51:10;;;;;;;2.63;2.30;;;;;;;23.57;40.10;102255.00;4967765;28;21747;-85
2022/06/02 12:54:13;;;;;;;4.70;2.35;;;;;;;23.70;40.05;102255.31;5011341;28;20057;-87
2022/06/02 12:56:59;;;;;;;2.92;2.50;;;;;;;23.68;40.06;102251.13;4959857;28;20420;-87
2022/06/02 12:59:48;;;;;;;4.65;2.20;;;;;;;23.75;40.03;102246.81;5008859;28;20038;-85
2022/06/02 13:02:27;;;;;;;5.17;2.90;;;;;;;23.84;40.13;102250.25;4971671;28;20699;-88
2022/06/02 13:05:17;;;;;;;3.08;2.50;;;;;;;23.87;40.19;102245.41;5004988;28;21061;-93